Time;durP1;ratioP1;P1;durP2;ratioP2;P2;SDS_P1;SDS_P2;PMS_P1;PMS_P2;Temp;Humidity;BMP_temperature;BMP_pressure;BME280_temperature;BME280_humidity;BME280_pressure;Samples;Min_cycle;Max_cycle;Signal;HPM_P1;HPM_P2
2021/09/27 00:01:41;;;;;;;6.80;3.13;;;13.00;68.00;;;;;;5058717;28;20104;-40
2021/09/27 00:04:07;;;;;;;6.97;3.08;;;13.00;68.10;;;;;;5058764;28;20060;-39
2021/09/27 00:06:33;;;;;;;6.88;3.20;;;13.00;68.20;;;;;;5058644;28;20045;-39
2021/09/27 00:08:58;;;;;;;6.85;3.00;;;13.00;68.30;;;;;;5058776;28;20469;-37
2021/09/27 00:11:26;;;;;;;6.28;3.00;;;12.90;68.40;;;;;;5058116;28;20036;-41
2021/09/27 00:13:54;;;;;;;7.72;2.85;;;12.90;68.50;;;;;;5058728;28;20033;-37
2021/09/27 00:16:21;;;;;;;7.90;2.80;;;12.90;68.70;;;;;;5058335;28;20366;-41
2021/09/27 00:18:47;;;;;;;7.25;2.70;;;12.90;68.70;;;;;;5058469;28;20302;-39
2021/09/27 00:21:24;;;;;;;5.75;2.50;;;12.90;68.80;;;;;;5058540;28;20031;-38
2021/09/27 00:23:51;;;;;;;5.65;2.50;;;12.80;68.80;;;;;;5058318;28;20029;-37
2021/09/27 00:26:19;;;;;;;4.57;2.42;;;12.80;68.90;;;;;;5057918;28;20122;-38
2021/09/27 00:28:44;;;;;;;3.90;2.33;;;12.80;68.90;;;;;;5058481;28;20043;-40
2021/09/27 00:31:11;;;;;;;3.97;2.35;;;12.80;68.90;;;;;;5058035;28;20029;-40
2021/09/27 00:33:37;;;;;;;5.55;2.40;;;12.80;68.90;;;;;;5058415;28;20069;-37
2021/09/27 00:36:03;;;;;;;6.70;2.83;;;12.80;69.00;;;;;;5057838;28;20029;-37
2021/09/27 00:38:29;;;;;;;6.38;2.65;;;12.80;69.00;;;;;;5058139;28;20390;-39
2021/09/27 00:41:03;;;;;;;4.97;2.75;;;12.70;69.00;;;;;;5057728;28;20041;-38
2021/09/27 00:43:34;;;;;;;8.68;2.90;;;12.70;69.00;;;;;;5057728;28;20030;-37
2021/09/27 00:46:05;;;;;;;7.15;2.50;;;12.70;69.00;;;;;;5057686;28;20083;-40
2021/09/27 00:48:30;;;;;;;7.45;2.88;;;12.70;69.10;;;;;;5057885;28;20021;-37
2021/09/27 00:51:00;;;;;;;4.55;2.60;;;12.70;69.10;;;;;;5057718;28;20451;-42
2021/09/27 00:53:35;;;;;;;4.35;2.20;;;12.70;69.00;;;;;;5057348;28;20043;-40
2021/09/27 00:56:01;;;;;;;4.85;2.67;;;12.70;69.10;;;;;;5057291;28;20025;-37
2021/09/27 00:58:28;;;;;;;3.67;2.78;;;12.70;69.10;;;;;;5058015;28;20028;-40
2021/09/27 01:00:56;;;;;;;7.07;2.97;;;12.70;69.20;;;;;;5057433;28;20025;-40
2021/09/27 01:03:22;;;;;;;6.85;3.15;;;12.70;69.20;;;;;;5057636;28;20074;-39
2021/09/27 01:06:03;;;;;;;4.88;2.25;;;12.60;69.20;;;;;;5057115;28;20032;-37
2021/09/27 01:08:42;;;;;;;6.28;2.50;;;12.60;69.20;;;;;;5057610;28;20122;-41
2021/09/27 01:11:34;;;;;;;5.53;2.60;;;12.60;69.40;;;;;;5056060;28;20029;-37
2021/09/27 01:14:08;;;;;;;4.55;2.47;;;12.60;69.60;;;;;;5055916;28;20125;-41
2021/09/27 01:16:37;;;;;;;3.33;2.40;;;12.60;69.70;;;;;;5057402;28;20159;-37
2021/09/27 01:19:25;;;;;;;5.90;2.67;;;12.60;69.90;;;;;;5057479;28;20078;-39
2021/09/27 01:21:59;;;;;;;7.82;2.60;;;12.60;69.90;;;;;;5056915;28;20419;-41
2021/09/27 01:24:57;;;;;;;3.97;2.40;;;12.60;69.90;;;;;;5057545;28;20055;-40
2021/09/27 01:27:49;;;;;;;4.88;2.53;;;12.50;69.80;;;;;;5057062;28;20052;-42
2021/09/27 01:30:46;;;;;;;3.47;2.30;;;12.50;69.90;;;;;;5056683;28;20041;-37
2021/09/27 01:33:31;;;;;;;4.65;2.08;;;12.50;69.70;;;;;;5057436;28;20048;-40
2021/09/27 01:36:09;;;;;;;5.43;2.83;;;12.50;69.80;;;;;;5056729;28;20029;-40
2021/09/27 01:38:40;;;;;;;8.48;2.55;;;12.50;69.80;;;;;;5057216;28;20052;-40
2021/09/27 01:41:29;;;;;;;3.45;2.80;;;12.50;69.90;;;;;;5056832;28;20459;-38
2021/09/27 01:43:58;;;;;;;4.32;2.53;;;12.50;69.90;;;;;;5056952;28;20057;-39
2021/09/27 01:46:45;;;;;;;5.15;2.58;;;12.50;70.10;;;;;;5056634;28;20312;-40
2021/09/27 01:49:40;;;;;;;4.75;2.30;;;12.40;70.20;;;;;;5056926;28;20028;-40
2021/09/27 01:52:20;;;;;;;4.97;2.28;;;12.40;70.20;;;;;;5056289;28;20053;-37
2021/09/27 01:54:52;;;;;;;5.55;2.47;;;12.40;70.40;;;;;;5055456;28;20076;-37
2021/09/27 01:57:53;;;;;;;8.63;2.50;;;12.30;70.60;;;;;;5056357;28;20128;-41
2021/09/27 02:00:43;;;;;;;4.75;2.20;;;12.40;70.70;;;;;;5056609;28;20041;-42
2021/09/27 02:03:12;;;;;;;4.03;2.40;;;12.30;70.90;;;;;;5056147;28;20409;-40
2021/09/27 02:05:53;;;;;;;6.60;2.35;;;12.30;71.00;;;;;;5056112;28;20040;-37
2021/09/27 02:08:56;;;;;;;3.95;2.25;;;12.30;71.00;;;;;;5056532;28;20060;-40
2021/09/27 02:11:33;;;;;;;3.17;2.15;;;12.30;71.00;;;;;;5054704;28;20130;-41
2021/09/27 02:14:33;;;;;;;6.15;2.45;;;12.30;71.10;;;;;;5056318;28;20087;-37
2021/09/27 02:17:08;;;;;;;5.40;2.33;;;12.30;71.10;;;;;;5055967;28;20032;-37
2021/09/27 02:19:52;;;;;;;6.43;2.28;;;12.30;71.20;;;;;;5056120;28;20325;-40
2021/09/27 02:22:24;;;;;;;3.90;2.10;;;12.30;71.30;;;;;;5054790;28;20029;-37
2021/09/27 02:25:11;;;;;;;3.72;2.25;;;12.30;71.40;;;;;;5055725;28;20330;-40
2021/09/27 02:27:37;;;;;;;4.13;1.98;;;12.30;71.50;;;;;;5055755;28;20079;-37
2021/09/27 02:30:06;;;;;;;3.55;2.00;;;12.30;71.40;;;;;;5056080;28;20033;-37
2021/09/27 02:33:00;;;;;;;5.88;2.30;;;12.30;71.50;;;;;;5055564;28;20025;-40
2021/09/27 02:35:44;;;;;;;3.63;2.08;;;12.30;71.40;;;;;;5055506;28;20556;-37
2021/09/27 02:38:42;;;;;;;3.88;2.00;;;12.40;71.30;;;;;;5055839;28;20056;-41
2021/09/27 02:41:07;;;;;;;5.82;2.28;;;12.30;71.50;;;;;;5055013;28;20037;-37
2021/09/27 02:43:33;;;;;;;4.90;2.00;;;12.30;71.40;;;;;;5056142;28;20105;-39
2021/09/27 02:45:59;;;;;;;4.25;2.10;;;12.30;71.50;;;;;;5055375;28;20029;-41
2021/09/27 02:48:41;;;;;;;6.25;3.10;;;12.30;72.10;;;;;;5055945;28;20021;-41
2021/09/27 02:51:09;;;;;;;5.05;2.33;;;12.30;71.70;;;;;;5055134;28;20039;-41
2021/09/27 02:53:36;;;;;;;4.43;2.58;;;12.30;71.70;;;;;;5055199;28;20064;-41
2021/09/27 02:56:20;;;;;;;4.00;2.40;;;12.20;71.70;;;;;;5055388;28;20295;-40
2021/09/27 02:59:03;;;;;;;2.28;2.00;;;12.20;71.70;;;;;;5055905;28;20077;-40
2021/09/27 03:02:11;;;;;;;3.85;2.20;;;12.20;71.80;;;;;;5055144;28;20025;-37
2021/09/27 03:05:03;;;;;;;3.88;2.08;;;12.20;71.70;;;;;;5054803;28;20118;-40
2021/09/27 03:07:49;;;;;;;3.17;2.40;;;12.10;71.90;;;;;;5055184;28;20056;-38
2021/09/27 03:10:15;;;;;;;2.83;2.05;;;12.10;71.90;;;;;;5055474;28;20040;-41
2021/09/27 03:13:03;;;;;;;3.92;2.30;;;12.10;72.10;;;;;;5055570;28;20028;-37
2021/09/27 03:16:00;;;;;;;7.35;2.45;;;12.10;72.10;;;;;;5055277;28;20052;-37
2021/09/27 03:18:32;;;;;;;6.80;2.80;;;12.10;72.10;;;;;;5055842;28;20051;-37
2021/09/27 03:21:08;;;;;;;4.20;2.40;;;12.10;72.30;;;;;;5055431;28;20075;-41
2021/09/27 03:23:59;;;;;;;5.93;3.45;;;12.00;72.20;;;;;;5055479;28;20317;-41
2021/09/27 03:26:34;;;;;;;5.45;3.00;;;12.00;72.30;;;;;;5055402;28;20025;-37
2021/09/27 03:29:05;;;;;;;5.28;2.45;;;12.00;72.30;;;;;;5055456;28;20052;-37
2021/09/27 03:31:48;;;;;;;4.38;2.70;;;11.90;72.30;;;;;;5055224;28;20029;-40
2021/09/27 03:34:31;;;;;;;5.65;2.97;;;11.90;72.50;;;;;;5055514;28;20037;-40
2021/09/27 03:37:19;;;;;;;4.03;2.60;;;11.80;72.40;;;;;;5054705;28;20075;-37
2021/09/27 03:40:02;;;;;;;5.00;2.25;;;11.80;72.50;;;;;;5055118;28;20030;-38
2021/09/27 03:43:00;;;;;;;3.30;2.38;;;11.70;72.60;;;;;;5054964;28;20032;-37
2021/09/27 03:45:50;;;;;;;7.07;2.90;;;11.70;72.60;;;;;;5054626;28;20140;-37
2021/09/27 03:48:21;;;;;;;6.47;2.53;;;11.60;72.80;;;;;;5054986;28;20033;-37
2021/09/27 03:51:00;;;;;;;4.70;2.60;;;11.60;72.90;;;;;;5054626;28;20037;-40
2021/09/27 03:53:30;;;;;;;3.92;2.60;;;11.60;73.10;;;;;;5054762;28;20049;-39
2021/09/27 03:56:05;;;;;;;7.90;3.40;;;11.50;73.10;;;;;;5054468;28;20051;-37
2021/09/27 03:58:40;;;;;;;4.22;2.55;;;11.50;73.20;;;;;;5054995;28;20040;-37
2021/09/27 04:01:17;;;;;;;8.48;3.00;;;11.50;73.20;;;;;;5054646;28;20078;-40
2021/09/27 04:04:09;;;;;;;9.63;2.97;;;11.50;73.20;;;;;;5055169;28;20121;-40
2021/09/27 04:06:47;;;;;;;6.97;2.28;;;11.50;73.20;;;;;;5054764;28;20044;-37
2021/09/27 04:09:51;;;;;;;6.57;3.28;;;11.50;73.30;;;;;;5055274;28;20060;-37
2021/09/27 04:12:22;;;;;;;3.80;2.28;;;11.50;73.50;;;;;;5052199;28;20037;-37
2021/09/27 04:14:48;;;;;;;6.05;2.60;;;11.50;73.50;;;;;;5054162;28;20073;-40
2021/09/27 04:17:41;;;;;;;3.67;2.35;;;11.50;73.60;;;;;;5055130;28;20052;-40
2021/09/27 04:20:13;;;;;;;3.92;2.53;;;11.40;73.50;;;;;;5058269;28;20324;-41
2021/09/27 04:22:50;;;;;;;7.03;3.00;;;11.50;73.80;;;;;;5058123;28;20086;-38
2021/09/27 04:25:37;;;;;;;6.63;2.95;;;11.50;73.90;;;;;;5058311;28;20044;-37
2021/09/27 04:28:14;;;;;;;10.65;3.55;;;11.50;73.90;;;;;;5057383;28;20041;-37
2021/09/27 04:31:32;;;;;;;4.28;2.70;;;11.50;74.00;;;;;;5058086;28;20033;-41
2021/09/27 04:34:10;;;;;;;6.03;2.90;;;11.50;73.90;;;;;;5055396;28;20051;-37
2021/09/27 04:36:44;;;;;;;8.50;2.63;;;11.50;74.00;;;;;;5055433;28;20041;-40
2021/09/27 04:39:17;;;;;;;5.57;2.67;;;11.50;74.00;;;;;;5058143;28;20021;-41
2021/09/27 04:42:10;;;;;;;4.88;2.50;;;11.60;74.10;;;;;;5057516;28;20033;-41
2021/09/27 04:45:06;;;;;;;7.18;4.13;;;11.60;74.00;;;;;;5057653;28;20325;-41
2021/09/27 04:47:57;;;;;;;7.00;2.85;;;11.60;74.00;;;;;;5041930;28;20178;-41
2021/09/27 04:50:44;;;;;;;3.38;2.65;;;11.60;74.10;;;;;;5037601;28;20110;-37
2021/09/27 04:53:18;;;;;;;18.95;9.45;;;11.70;74.10;;;;;;5043846;28;20049;-37
2021/09/27 04:56:09;;;;;;;9.52;3.78;;;11.70;74.20;;;;;;5057207;28;20112;-37
2021/09/27 04:58:41;;;;;;;5.35;3.22;;;11.70;74.10;;;;;;5057752;28;20108;-40
2021/09/27 05:01:23;;;;;;;7.38;3.30;;;11.80;74.00;;;;;;5057074;28;20067;-40
2021/09/27 05:04:19;;;;;;;6.13;3.47;;;11.80;74.00;;;;;;5057412;28;20039;-37
2021/09/27 05:07:04;;;;;;;3.60;2.63;;;11.90;73.90;;;;;;5057100;28;20274;-40
2021/09/27 05:09:51;;;;;;;3.90;2.28;;;11.90;73.70;;;;;;5056897;28;20029;-40
2021/09/27 05:12:41;;;;;;;4.20;2.75;;;12.00;73.60;;;;;;5056934;28;20029;-39
2021/09/27 05:15:28;;;;;;;6.55;2.35;;;12.00;73.50;;;;;;5057314;28;20045;-37
2021/09/27 05:18:18;;;;;;;5.55;3.92;;;12.00;73.20;;;;;;5057095;28;20298;-37
2021/09/27 05:20:55;;;;;;;4.75;2.40;;;12.10;73.20;;;;;;5057234;28;20053;-41
2021/09/27 05:23:50;;;;;;;3.15;2.08;;;12.10;73.10;;;;;;5057090;28;20022;-37
2021/09/27 05:26:22;;;;;;;8.10;2.92;;;12.10;72.90;;;;;;5056568;28;20436;-36
2021/09/27 05:28:54;;;;;;;6.15;2.55;;;12.20;73.00;;;;;;5056481;28;20082;-36
2021/09/27 05:31:20;;;;;;;5.78;2.38;;;12.20;72.70;;;;;;5056353;28;20033;-39
2021/09/27 05:34:02;;;;;;;3.47;2.55;;;12.20;72.60;;;;;;5057015;28;20357;-41
2021/09/27 05:36:45;;;;;;;3.67;2.38;;;12.30;72.50;;;;;;5056811;28;20363;-37
2021/09/27 05:39:29;;;;;;;5.00;2.70;;;12.30;72.30;;;;;;5056799;28;20021;-37
2021/09/27 05:42:03;;;;;;;6.18;2.80;;;12.30;72.30;;;;;;5056424;28;20031;-37
2021/09/27 05:44:40;;;;;;;6.00;2.60;;;12.40;72.30;;;;;;5056183;28;20033;-37
2021/09/27 05:47:26;;;;;;;4.55;3.03;;;12.40;72.10;;;;;;5055788;28;20025;-37
2021/09/27 05:50:18;;;;;;;3.95;2.28;;;12.50;71.90;;;;;;5056391;28;20087;-41
2021/09/27 05:53:13;;;;;;;4.18;2.38;;;12.50;71.60;;;;;;5055769;28;20444;-37
2021/09/27 05:55:54;;;;;;;5.80;3.47;;;12.50;71.60;;;;;;5056115;28;20033;-40
2021/09/27 05:58:29;;;;;;;4.03;2.30;;;12.50;71.40;;;;;;5056470;28;20396;-40
2021/09/27 06:01:29;;;;;;;2.42;2.03;;;12.50;71.20;;;;;;5056172;28;20029;-40
2021/09/27 06:04:14;;;;;;;4.25;2.47;;;12.60;70.90;;;;;;5055824;28;20132;-38
2021/09/27 06:06:53;;;;;;;4.13;2.00;;;12.50;70.90;;;;;;5055888;28;20112;-41
2021/09/27 06:09:35;;;;;;;4.43;2.78;;;12.60;71.00;;;;;;5055086;28;20029;-37
2021/09/27 06:12:21;;;;;;;4.07;2.65;;;12.60;71.30;;;;;;5055807;28;20064;-41
2021/09/27 06:14:48;;;;;;;3.17;1.90;;;12.60;71.20;;;;;;5055654;28;20441;-41
2021/09/27 06:17:41;;;;;;;4.22;2.30;;;12.70;71.00;;;;;;5050403;28;20026;-36
2021/09/27 06:20:18;;;;;;;4.03;2.10;;;12.70;70.90;;;;;;5035896;28;20040;-40
2021/09/27 06:23:14;;;;;;;3.67;1.85;;;12.70;70.90;;;;;;5055523;28;20403;-37
2021/09/27 06:26:05;;;;;;;3.25;2.10;;;12.70;70.90;;;;;;5055504;28;20449;-38
2021/09/27 06:29:08;;;;;;;3.90;2.60;;;12.70;70.90;;;;;;5055947;28;20029;-37
2021/09/27 06:31:49;;;;;;;5.60;2.58;;;12.80;70.90;;;;;;5054859;28;20033;-37
2021/09/27 06:34:21;;;;;;;5.63;2.60;;;12.80;70.70;;;;;;5055683;28;20040;-41
2021/09/27 06:36:47;;;;;;;3.38;2.38;;;12.80;70.80;;;;;;5055099;28;20079;-41
2021/09/27 06:39:23;;;;;;;9.20;2.78;;;12.90;70.70;;;;;;5053690;28;20232;-41
2021/09/27 06:41:51;;;;;;;4.25;2.47;;;12.90;70.50;;;;;;5042424;28;20033;-37
2021/09/27 06:44:18;;;;;;;2.33;1.80;;;12.90;70.60;;;;;;5035750;28;20087;-36
2021/09/27 06:46:45;;;;;;;5.68;2.67;;;13.00;70.40;;;;;;5035541;28;20041;-36
2021/09/27 06:49:12;;;;;;;2.45;2.03;;;13.00;70.20;;;;;;5035476;28;20032;-36
2021/09/27 06:51:41;;;;;;;6.03;2.22;;;13.00;70.30;;;;;;5035093;28;20369;-36
2021/09/27 06:54:15;;;;;;;2.58;2.00;;;13.10;70.30;;;;;;5034829;28;20049;-36
2021/09/27 06:56:41;;;;;;;5.50;4.05;;;13.20;70.20;;;;;;5035174;28;20052;-36
2021/09/27 06:59:07;;;;;;;2.47;1.92;;;13.20;70.10;;;;;;5035543;28;20025;-42
2021/09/27 07:01:33;;;;;;;2.47;2.08;;;13.20;69.80;;;;;;5035370;28;20060;-42
2021/09/27 07:03:59;;;;;;;2.78;2.13;;;13.30;69.70;;;;;;5034683;28;20037;-41
2021/09/27 07:06:25;;;;;;;1.80;1.65;;;13.30;69.50;;;;;;5035384;28;20029;-38
2021/09/27 07:08:51;;;;;;;3.63;2.10;;;13.40;69.30;;;;;;5035549;28;20321;-42
2021/09/27 07:11:17;;;;;;;1.85;1.55;;;13.40;69.50;;;;;;5034837;28;20137;-42
2021/09/27 07:13:44;;;;;;;5.25;1.90;;;13.40;69.60;;;;;;5035406;28;20030;-37
2021/09/27 07:16:10;;;;;;;2.78;2.17;;;13.40;69.50;;;;;;5034653;28;20163;-41
2021/09/27 07:18:37;;;;;;;2.45;1.80;;;13.50;69.40;;;;;;5035155;28;20033;-37
2021/09/27 07:21:06;;;;;;;2.20;1.88;;;13.50;69.20;;;;;;5035061;28;20036;-37
2021/09/27 07:23:37;;;;;;;3.20;1.77;;;13.50;69.20;;;;;;5035578;28;20031;-41
2021/09/27 07:26:04;;;;;;;2.40;1.90;;;13.50;69.50;;;;;;5034777;28;20137;-39
2021/09/27 07:28:29;;;;;;;10.15;2.05;;;13.60;69.40;;;;;;5035555;28;20029;-36
2021/09/27 07:30:55;;;;;;;2.92;1.83;;;13.60;69.10;;;;;;5034719;28;20314;-38
2021/09/27 07:33:20;;;;;;;2.90;1.90;;;13.70;69.00;;;;;;5035278;28;20428;-36
2021/09/27 07:35:46;;;;;;;4.13;2.17;;;13.70;68.70;;;;;;5034651;28;20072;-37
2021/09/27 07:38:12;;;;;;;5.15;1.80;;;13.70;68.70;;;;;;5034959;28;20114;-37
2021/09/27 07:40:38;;;;;;;2.33;1.55;;;13.80;69.00;;;;;;5034831;28;20031;-41
2021/09/27 07:43:05;;;;;;;10.00;2.38;;;13.90;69.00;;;;;;5035082;28;20361;-42
2021/09/27 07:45:34;;;;;;;9.50;3.97;;;13.90;69.00;;;;;;5035097;28;20181;-36
2021/09/27 07:48:05;;;;;;;7.53;2.45;;;14.00;69.10;;;;;;5034769;28;20036;-41
2021/09/27 07:50:31;;;;;;;2.40;1.50;;;14.00;69.00;;;;;;5034881;28;20025;-40
2021/09/27 07:52:57;;;;;;;3.35;1.40;;;14.10;68.40;;;;;;5040452;28;20107;-37
2021/09/27 07:55:23;;;;;;;5.32;2.28;;;14.20;67.90;;;;;;5038249;28;20064;-41
2021/09/27 07:57:49;;;;;;;2.03;1.20;;;14.20;67.80;;;;;;5038170;28;20084;-42
2021/09/27 08:00:20;;;;;;;1.60;1.50;;;14.30;67.70;;;;;;5038354;28;20045;-36
2021/09/27 08:02:45;;;;;;;3.65;1.40;;;14.30;67.50;;;;;;5039441;28;20029;-40
2021/09/27 08:05:18;;;;;;;2.80;1.77;;;14.40;67.10;;;;;;5042948;28;20037;-41
2021/09/27 08:07:43;;;;;;;4.70;2.95;;;14.50;66.80;;;;;;5038363;28;20030;-41
2021/09/27 08:10:10;;;;;;;3.03;0.95;;;14.50;66.00;;;;;;5038603;28;20379;-37
2021/09/27 08:12:38;;;;;;;2.65;1.77;;;14.60;65.20;;;;;;5038448;28;20034;-38
2021/09/27 08:15:13;;;;;;;2.60;1.80;;;14.60;64.80;;;;;;5037793;28;20438;-38
2021/09/27 08:17:39;;;;;;;1.02;0.90;;;14.60;64.20;;;;;;5037735;28;20104;-36
2021/09/27 08:20:07;;;;;;;3.03;1.77;;;14.70;64.10;;;;;;5038047;28;20432;-37
2021/09/27 08:22:33;;;;;;;3.95;1.98;;;14.70;63.30;;;;;;5036259;28;20148;-36
2021/09/27 08:24:59;;;;;;;1.60;0.85;;;14.80;63.10;;;;;;5056337;28;20449;-36
2021/09/27 08:27:25;;;;;;;2.75;2.15;;;14.90;63.10;;;;;;5057413;28;20116;-41
2021/09/27 08:29:51;;;;;;;3.75;2.25;;;15.00;62.70;;;;;;5057437;28;20378;-40
2021/09/27 08:32:16;;;;;;;1.92;1.17;;;15.00;62.60;;;;;;5057334;28;20036;-41
2021/09/27 08:34:43;;;;;;;7.03;3.40;;;15.10;61.80;;;;;;5057332;28;20045;-41
2021/09/27 08:37:10;;;;;;;2.45;1.30;;;15.20;62.30;;;;;;5057511;28;20029;-37
2021/09/27 08:39:36;;;;;;;2.35;1.52;;;15.20;62.50;;;;;;5057263;28;20033;-41
2021/09/27 08:42:11;;;;;;;2.05;1.42;;;15.30;62.00;;;;;;5057173;28;20325;-41
2021/09/27 08:44:49;;;;;;;4.75;2.13;;;15.40;61.90;;;;;;5057075;28;20135;-37
2021/09/27 08:47:30;;;;;;;4.80;1.42;;;15.50;61.60;;;;;;5056772;28;20029;-38
2021/09/27 08:50:08;;;;;;;1.25;0.82;;;15.60;60.80;;;;;;5057210;28;20089;-37
2021/09/27 08:52:37;;;;;;;1.45;1.15;;;15.70;60.50;;;;;;5056800;28;20424;-42
2021/09/27 08:55:13;;;;;;;3.15;1.65;;;15.70;60.10;;;;;;5057102;28;20425;-42
2021/09/27 08:58:01;;;;;;;3.83;2.22;;;15.80;59.80;;;;;;5056642;28;20523;-38
2021/09/27 09:00:43;;;;;;;1.50;1.15;;;15.90;59.60;;;;;;5056625;28;20120;-36
2021/09/27 09:03:25;;;;;;;2.80;1.25;;;16.00;58.20;;;;;;5056152;28;20071;-42
2021/09/27 09:06:04;;;;;;;1.80;1.42;;;16.00;58.10;;;;;;5056621;28;20078;-38
2021/09/27 09:08:44;;;;;;;4.72;1.48;;;16.10;58.20;;;;;;5057084;28;20116;-36
2021/09/27 09:11:28;;;;;;;3.95;0.95;;;16.10;57.70;;;;;;5056836;28;20036;-41
2021/09/27 09:14:35;;;;;;;1.65;0.57;;;16.20;57.80;;;;;;5056601;28;20037;-44
2021/09/27 09:17:15;;;;;;;1.77;0.80;;;16.20;57.60;;;;;;5056311;28;20514;-41
2021/09/27 09:19:41;;;;;;;1.50;1.23;;;16.30;57.70;;;;;;5056775;28;20329;-36
2021/09/27 09:22:26;;;;;;;1.17;0.88;;;16.30;57.90;;;;;;5056754;28;20036;-41
2021/09/27 09:24:52;;;;;;;0.82;0.70;;;16.30;57.60;;;;;;5056828;28;20056;-37
2021/09/27 09:27:18;;;;;;;1.17;1.05;;;16.40;57.40;;;;;;5056406;28;20029;-40
2021/09/27 09:29:46;;;;;;;0.82;0.63;;;16.40;57.00;;;;;;5057263;28;20437;-36
2021/09/27 09:32:28;;;;;;;2.25;1.33;;;16.40;56.60;;;;;;5056428;28;20116;-41
2021/09/27 09:35:15;;;;;;;2.22;1.40;;;16.50;55.90;;;;;;5056293;28;20040;-37
2021/09/27 09:37:54;;;;;;;0.80;0.73;;;16.50;55.80;;;;;;5056327;28;20029;-37
2021/09/27 09:40:28;;;;;;;1.75;0.60;;;16.50;55.90;;;;;;5056250;28;20444;-42
2021/09/27 09:43:01;;;;;;;0.60;0.60;;;16.60;56.10;;;;;;5056053;28;20031;-42
2021/09/27 09:45:31;;;;;;;1.48;0.77;;;16.60;55.90;;;;;;5056090;28;20055;-36
2021/09/27 09:48:15;;;;;;;0.73;0.70;;;16.60;56.00;;;;;;5055781;28;20029;-41
2021/09/27 09:50:42;;;;;;;0.43;0.43;;;16.70;56.10;;;;;;5056091;28;20033;-41
2021/09/27 09:53:24;;;;;;;3.03;0.80;;;16.70;55.70;;;;;;5055647;28;20119;-40
2021/09/27 09:55:59;;;;;;;2.20;1.80;;;16.70;55.30;;;;;;5055266;28;20033;-40
2021/09/27 09:58:33;;;;;;;3.08;0.90;;;16.70;55.50;;;;;;5055568;28;20401;-42
2021/09/27 10:01:05;;;;;;;0.95;0.95;;;16.70;55.60;;;;;;5055755;28;20047;-37
2021/09/27 10:03:34;;;;;;;2.58;1.25;;;16.70;55.30;;;;;;5055699;28;20056;-44
2021/09/27 10:06:06;;;;;;;1.10;0.88;;;16.80;55.40;;;;;;5055744;28;20095;-41
2021/09/27 10:08:33;;;;;;;3.53;1.05;;;16.80;55.40;;;;;;5055744;28;20083;-42
2021/09/27 10:11:13;;;;;;;1.02;0.93;;;16.80;55.50;;;;;;5055517;28;20056;-42
2021/09/27 10:13:56;;;;;;;1.17;1.08;;;16.70;55.20;;;;;;5055785;28;20033;-37
2021/09/27 10:16:28;;;;;;;1.13;0.73;;;16.70;55.10;;;;;;5054820;28;20041;-37
2021/09/27 10:19:11;;;;;;;1.65;0.55;;;16.70;55.30;;;;;;5055802;28;20028;-38
2021/09/27 10:21:37;;;;;;;1.67;0.90;;;16.70;55.30;;;;;;5049014;28;20025;-37
2021/09/27 10:24:22;;;;;;;0.80;0.80;;;16.60;56.00;;;;;;5055334;28;20409;-37
2021/09/27 10:26:53;;;;;;;1.27;0.93;;;16.60;54.70;;;;;;5055527;28;20103;-36
2021/09/27 10:29:26;;;;;;;1.02;0.90;;;16.60;54.40;;;;;;5036914;28;20033;-43
2021/09/27 10:32:14;;;;;;;1.13;0.85;;;16.50;54.40;;;;;;5034976;28;20040;-42
2021/09/27 10:34:41;;;;;;;1.67;0.57;;;16.50;54.30;;;;;;5039368;28;20052;-38
2021/09/27 10:37:16;;;;;;;1.38;0.88;;;16.50;53.80;;;;;;5035673;28;20029;-36
2021/09/27 10:39:45;;;;;;;2.05;0.77;;;16.50;54.30;;;;;;5036736;28;20029;-43
2021/09/27 10:42:16;;;;;;;4.38;0.60;;;16.50;53.90;;;;;;5046729;28;20421;-36
2021/09/27 10:44:46;;;;;;;0.77;0.77;;;16.50;53.60;;;;;;5044020;28;20068;-36
2021/09/27 10:47:18;;;;;;;2.47;0.82;;;16.50;54.10;;;;;;5036595;28;20056;-37
2021/09/27 10:49:55;;;;;;;1.95;1.00;;;16.50;54.50;;;;;;5035382;28;20034;-36
2021/09/27 10:52:24;;;;;;;2.60;0.50;;;16.50;54.20;;;;;;5034650;28;20087;-40
2021/09/27 10:54:55;;;;;;;1.35;0.75;;;16.60;53.80;;;;;;5035195;28;20045;-42
2021/09/27 10:57:25;;;;;;;3.42;0.45;;;16.60;53.60;;;;;;5034593;28;20034;-39
2021/09/27 10:59:53;;;;;;;3.47;2.60;;;16.70;53.60;;;;;;5035005;28;20084;-42
2021/09/27 11:02:31;;;;;;;0.73;0.60;;;16.70;53.60;;;;;;5034860;28;20321;-40
2021/09/27 11:05:23;;;;;;;0.52;0.50;;;16.80;53.60;;;;;;5034928;28;20038;-41
2021/09/27 11:07:55;;;;;;;2.75;0.68;;;16.80;53.70;;;;;;5034950;28;20342;-39
2021/09/27 11:10:29;;;;;;;1.15;0.80;;;16.80;53.20;;;;;;5035259;28;20353;-37
2021/09/27 11:12:55;;;;;;;0.40;0.40;;;16.80;53.20;;;;;;5035121;28;20287;-37
2021/09/27 11:15:34;;;;;;;0.68;0.55;;;16.70;52.80;;;;;;5035202;28;20041;-38
2021/09/27 11:18:12;;;;;;;1.40;0.82;;;16.80;52.90;;;;;;5034783;28;20022;-41
2021/09/27 11:20:49;;;;;;;1.40;0.73;;;16.70;53.10;;;;;;5035345;28;20053;-39
2021/09/27 11:23:18;;;;;;;0.60;0.50;;;16.70;53.00;;;;;;5034809;28;20357;-41
2021/09/27 11:26:05;;;;;;;0.85;0.55;;;16.70;53.30;;;;;;5034977;28;20044;-41
2021/09/27 11:28:49;;;;;;;0.50;0.40;;;16.70;53.10;;;;;;5038543;28;20029;-42
2021/09/27 11:31:27;;;;;;;1.05;0.70;;;16.70;53.10;;;;;;5038925;28;20044;-41
2021/09/27 11:33:55;;;;;;;3.38;2.28;;;16.70;52.90;;;;;;5038362;28;20024;-37
2021/09/27 11:36:23;;;;;;;1.60;1.50;;;16.70;53.60;;;;;;5038556;28;20045;-37
2021/09/27 11:39:05;;;;;;;0.70;0.60;;;16.70;53.60;;;;;;5038063;28;20325;-38
2021/09/27 11:41:33;;;;;;;0.75;0.55;;;16.70;53.00;;;;;;5038298;28;20029;-42
2021/09/27 11:44:07;;;;;;;2.00;1.10;;;16.60;52.80;;;;;;5038695;28;20029;-40
2021/09/27 11:46:54;;;;;;;6.30;4.13;;;16.60;53.30;;;;;;5038747;28;20124;-40
2021/09/27 11:52:00;;;;;;;1.20;0.52;;;16.60;53.50;;;;;;5038405;28;20129;-42
2021/09/27 11:54:46;;;;;;;2.67;0.55;;;16.70;52.50;;;;;;5037644;28;20052;-41
2021/09/27 11:57:32;;;;;;;5.55;1.70;;;16.70;53.00;;;;;;5038625;28;20401;-42
2021/09/27 12:00:04;;;;;;;3.60;1.00;;;16.80;52.90;;;;;;5047063;28;20062;-37
2021/09/27 12:02:55;;;;;;;0.98;0.73;;;16.80;52.40;;;;;;5037937;28;20103;-41
2021/09/27 12:05:50;;;;;;;2.22;1.27;;;16.90;52.40;;;;;;5038228;28;20048;-42
2021/09/27 12:08:34;;;;;;;4.40;1.63;;;16.90;52.90;;;;;;5038085;28;20417;-41
2021/09/27 12:11:05;;;;;;;4.35;1.35;;;17.00;53.20;;;;;;5037803;28;20037;-40
2021/09/27 12:13:46;;;;;;;1.75;1.50;;;17.00;53.20;;;;;;5038270;28;20038;-40
2021/09/27 12:16:53;;;;;;;0.82;0.82;;;16.90;52.60;;;;;;5037824;28;20083;-41
2021/09/27 12:19:23;;;;;;;0.95;0.80;;;16.90;52.50;;;;;;5036336;28;20042;-37
2021/09/27 12:21:53;;;;;;;2.08;1.50;;;16.80;52.50;;;;;;5037978;28;20059;-42
2021/09/27 12:24:26;;;;;;;2.70;1.60;;;16.80;53.00;;;;;;5037921;28;20021;-37
2021/09/27 12:27:13;;;;;;;5.68;2.00;;;16.80;53.00;;;;;;5037933;28;20072;-40
2021/09/27 12:30:02;;;;;;;4.28;2.42;;;16.70;53.20;;;;;;5037525;28;20046;-38
2021/09/27 12:32:37;;;;;;;2.80;1.90;;;16.70;53.70;;;;;;5037299;28;20024;-41
2021/09/27 12:35:16;;;;;;;1.15;1.05;;;16.70;53.80;;;;;;5037536;28;20034;-37
2021/09/27 12:37:44;;;;;;;7.23;2.10;;;16.70;54.20;;;;;;5036637;28;20022;-37
2021/09/27 12:40:14;;;;;;;3.55;1.58;;;16.70;54.00;;;;;;5037063;28;20683;-37
2021/09/27 12:42:50;;;;;;;1.92;1.27;;;16.80;54.00;;;;;;5037097;28;20025;-37
2021/09/27 12:45:21;;;;;;;2.10;1.42;;;16.70;54.20;;;;;;5037577;28;20199;-42
2021/09/27 12:47:48;;;;;;;2.38;1.30;;;16.80;54.70;;;;;;5039710;28;20318;-43
2021/09/27 12:50:18;;;;;;;4.00;2.38;;;16.80;54.60;;;;;;5057601;28;20056;-38
2021/09/27 12:52:59;;;;;;;2.42;1.42;;;16.80;54.60;;;;;;5056723;28;20068;-38
2021/09/27 12:55:53;;;;;;;1.92;1.30;;;16.80;53.80;;;;;;5057227;28;20120;-36
2021/09/27 12:58:35;;;;;;;1.83;1.50;;;16.80;54.10;;;;;;5057025;28;20029;-36
2021/09/27 13:01:04;;;;;;;0.80;0.80;;;16.80;54.20;;;;;;5056919;28;20032;-38
2021/09/27 13:03:31;;;;;;;1.50;1.20;;;16.80;53.80;;;;;;5057364;28;20035;-38
2021/09/27 13:06:15;;;;;;;3.78;1.20;;;16.80;54.50;;;;;;5056782;28;20044;-38
2021/09/27 13:08:48;;;;;;;0.70;0.70;;;16.90;54.70;;;;;;5057396;28;20036;-42
2021/09/27 13:11:48;;;;;;;0.88;0.88;;;16.90;54.90;;;;;;5057198;28;20415;-43
2021/09/27 13:14:24;;;;;;;2.45;1.58;;;17.00;55.00;;;;;;5057263;28;20108;-42
2021/09/27 13:16:54;;;;;;;1.08;1.00;;;17.10;55.10;;;;;;5056935;28;20069;-37
2021/09/27 13:19:37;;;;;;;1.92;1.20;;;17.20;55.20;;;;;;5057109;28;20366;-38
2021/09/27 13:22:05;;;;;;;1.73;1.15;;;17.20;54.80;;;;;;5056690;28;20420;-38
2021/09/27 13:24:31;;;;;;;1.83;1.52;;;17.20;54.40;;;;;;5056775;28;20029;-43
2021/09/27 13:27:13;;;;;;;1.40;1.00;;;17.20;54.50;;;;;;5056726;28;20029;-42
2021/09/27 13:29:49;;;;;;;2.45;1.58;;;17.20;54.60;;;;;;5055324;28;20055;-42
2021/09/27 13:32:18;;;;;;;1.00;1.00;;;17.10;54.50;;;;;;5056878;28;20036;-42
2021/09/27 13:34:49;;;;;;;1.73;1.50;;;17.20;55.00;;;;;;5053563;28;20120;-42
2021/09/27 13:37:28;;;;;;;1.83;1.50;;;17.10;54.80;;;;;;5055088;28;20035;-42